Time;durP1;ratioP1;P1;durP2;ratioP2;P2;SDS_P1;SDS_P2;PMS_P1;PMS_P2;Temp;Humidity;BMP_temperature;BMP_pressure;BME280_temperature;BME280_humidity;BME280_pressure;Samples;Min_cycle;Max_cycle;Signal;HPM_P1;HPM_P2
2023/07/01 00:02:19;;;;;;;5.75;2.33;;;22.40;61.10;;;;;;10330242;28;20038;-58
2023/07/01 00:07:20;;;;;;;5.60;2.50;;;22.40;61.00;;;;;;10309021;28;20095;-58
2023/07/01 00:12:20;;;;;;;4.88;3.25;;;22.40;61.00;;;;;;10309881;28;20044;-58
2023/07/01 00:17:21;;;;;;;4.20;2.83;;;22.40;60.80;;;;;;10329004;28;20101;-58
2023/07/01 00:22:22;;;;;;;6.07;2.97;;;22.40;61.40;;;;;;10326941;28;20479;-62
2023/07/01 00:27:22;;;;;;;3.97;2.88;;;22.40;60.70;;;;;;10329238;28;20022;-58
2023/07/01 00:32:23;;;;;;;3.95;2.47;;;22.40;61.30;;;;;;10311777;28;20129;-58
2023/07/01 00:37:24;;;;;;;2.88;2.05;;;22.40;60.60;;;;;;10327680;28;20045;-58
2023/07/01 00:42:24;;;;;;;5.35;2.60;;;22.40;60.40;;;;;;10303289;28;20094;-57
2023/07/01 00:47:25;;;;;;;4.57;2.45;;;22.40;60.30;;;;;;10294709;28;20018;-58
2023/07/01 00:52:26;;;;;;;5.40;2.97;;;22.40;60.40;;;;;;10328271;28;20658;-58
2023/07/01 00:57:27;;;;;;;3.58;2.55;;;22.40;60.30;;;;;;10306346;28;20022;-57
2023/07/01 01:02:33;;;;;;;3.85;2.22;;;22.40;60.60;;;;;;10328028;28;20015;-58
2023/07/01 01:07:48;;;;;;;5.82;2.53;;;22.30;60.30;;;;;;10310905;28;20031;-58
2023/07/01 01:12:53;;;;;;;3.50;2.63;;;22.30;60.30;;;;;;10310104;28;20402;-57
2023/07/01 01:17:59;;;;;;;4.18;2.85;;;22.30;60.20;;;;;;10297810;28;20821;-57
2023/07/01 01:23:26;;;;;;;5.55;2.17;;;22.30;60.50;;;;;;10277712;28;20437;-58
2023/07/01 01:28:27;;;;;;;3.92;2.30;;;22.30;60.70;;;;;;10285497;28;20669;-57
2023/07/01 01:33:28;;;;;;;3.47;2.25;;;22.30;60.80;;;;;;10284738;28;20023;-58
2023/07/01 01:38:33;;;;;;;3.80;2.50;;;22.30;60.90;;;;;;10286357;28;20023;-56
2023/07/01 01:44:10;;;;;;;2.40;2.00;;;22.30;60.90;;;;;;10299467;28;20022;-57
2023/07/01 01:49:12;;;;;;;3.90;2.00;;;22.30;60.70;;;;;;10276983;28;20382;-58
2023/07/01 01:54:14;;;;;;;4.63;2.72;;;22.30;60.70;;;;;;10267159;28;20528;-58
2023/07/01 01:59:15;;;;;;;6.07;2.42;;;22.30;60.80;;;;;;10265661;28;20018;-57
2023/07/01 02:04:16;;;;;;;3.22;2.10;;;22.30;61.00;;;;;;10281728;28;20050;-57
2023/07/01 02:09:16;;;;;;;4.07;2.25;;;22.20;60.90;;;;;;10283526;28;20062;-57
2023/07/01 02:14:17;;;;;;;5.70;2.63;;;22.30;60.90;;;;;;10285108;28;20102;-57
2023/07/01 02:19:18;;;;;;;4.78;2.30;;;22.20;60.90;;;;;;10285005;28;20026;-58
2023/07/01 02:24:19;;;;;;;3.00;2.35;;;22.20;60.90;;;;;;10283343;28;20049;-58
2023/07/01 02:29:20;;;;;;;3.42;2.08;;;22.20;60.90;;;;;;10284541;28;20081;-58
2023/07/01 02:34:27;;;;;;;4.47;2.25;;;22.20;61.00;;;;;;10275478;28;20015;-57
2023/07/01 02:39:28;;;;;;;5.15;2.47;;;22.20;61.00;;;;;;10283138;28;20023;-57
2023/07/01 02:44:29;;;;;;;4.85;2.20;;;22.20;61.00;;;;;;10283628;28;20027;-57
2023/07/01 02:49:29;;;;;;;3.53;2.33;;;22.20;61.10;;;;;;10282560;28;20114;-57
2023/07/01 02:54:30;;;;;;;3.83;2.25;;;22.20;60.70;;;;;;10283842;28;20047;-57
2023/07/01 02:59:31;;;;;;;2.95;2.00;;;22.20;60.80;;;;;;10284020;28;20115;-57
2023/07/01 03:04:33;;;;;;;2.80;2.05;;;22.20;61.00;;;;;;10283644;28;20019;-56
2023/07/01 03:09:34;;;;;;;3.20;2.00;;;22.20;61.10;;;;;;10266285;28;20681;-57
2023/07/01 03:14:35;;;;;;;4.55;2.05;;;22.20;61.20;;;;;;10266148;28;20054;-57
2023/07/01 03:19:35;;;;;;;3.38;2.30;;;22.10;61.00;;;;;;10283387;28;20019;-57
2023/07/01 03:24:36;;;;;;;4.78;2.30;;;22.20;61.20;;;;;;10323560;28;20022;-57
2023/07/01 03:29:37;;;;;;;3.17;2.22;;;22.20;61.30;;;;;;10322065;28;20139;-57
2023/07/01 03:34:38;;;;;;;2.75;1.77;;;22.20;61.10;;;;;;10298176;28;20106;-58
2023/07/01 03:39:39;;;;;;;4.43;2.20;;;22.20;61.20;;;;;;10321397;28;20452;-58
2023/07/01 03:44:40;;;;;;;2.05;1.77;;;22.20;61.30;;;;;;10322959;28;20118;-57
2023/07/01 03:49:40;;;;;;;3.10;1.80;;;22.10;61.40;;;;;;10305678;28;20144;-58
2023/07/01 03:54:41;;;;;;;3.83;2.20;;;22.20;61.50;;;;;;10306453;28;20026;-58
2023/07/01 03:59:42;;;;;;;2.88;1.92;;;22.10;61.50;;;;;;10312988;28;20561;-58
2023/07/01 04:04:42;;;;;;;5.57;3.00;;;22.10;61.40;;;;;;10300181;28;20054;-58
2023/07/01 04:09:43;;;;;;;2.92;2.20;;;22.10;61.40;;;;;;10330079;28;20038;-58
2023/07/01 04:14:44;;;;;;;3.45;1.90;;;22.10;61.40;;;;;;10329799;28;20154;-57
2023/07/01 04:19:45;;;;;;;2.78;1.95;;;22.10;61.60;;;;;;10329616;28;20767;-58
2023/07/01 04:24:45;;;;;;;2.33;1.90;;;22.10;61.70;;;;;;10328006;28;20520;-58
2023/07/01 04:29:46;;;;;;;3.92;2.13;;;22.10;61.60;;;;;;10305424;28;20038;-58
2023/07/01 04:34:48;;;;;;;4.20;2.42;;;22.10;61.60;;;;;;10328866;28;20458;-58
2023/07/01 04:39:49;;;;;;;2.55;1.73;;;22.10;61.70;;;;;;10310090;28;20021;-57
2023/07/01 04:44:55;;;;;;;2.97;1.63;;;22.10;61.70;;;;;;10310651;28;20101;-58
2023/07/01 04:49:56;;;;;;;3.33;1.77;;;22.10;61.80;;;;;;10310929;28;20037;-58
2023/07/01 04:54:57;;;;;;;3.53;1.95;;;22.10;61.80;;;;;;10306749;28;20069;-59
2023/07/01 04:59:58;;;;;;;3.75;1.90;;;22.10;62.10;;;;;;10325742;28;20088;-58
2023/07/01 05:04:58;;;;;;;4.32;1.88;;;22.10;62.50;;;;;;10327681;28;20097;-58
2023/07/01 05:09:59;;;;;;;7.50;2.33;;;22.20;62.50;;;;;;10300629;28;20126;-57
2023/07/01 05:15:00;;;;;;;11.85;2.42;;;22.30;62.70;;;;;;10308851;28;20097;-57
2023/07/01 05:20:00;;;;;;;6.47;2.20;;;22.30;63.00;;;;;;10310105;28;20039;-58
2023/07/01 05:25:02;;;;;;;7.68;2.63;;;22.50;62.70;;;;;;10327552;28;20101;-58
2023/07/01 05:30:03;;;;;;;13.27;3.63;;;22.60;63.00;;;;;;10305160;28;20073;-56
2023/07/01 05:35:04;;;;;;;9.43;3.20;;;22.60;63.20;;;;;;10327325;28;20534;-58
2023/07/01 05:40:06;;;;;;;6.47;3.08;;;22.60;63.20;;;;;;10309502;28;20105;-58
2023/07/01 05:45:07;;;;;;;13.02;3.42;;;22.50;63.20;;;;;;10309074;28;20081;-58
2023/07/01 05:50:08;;;;;;;14.07;3.30;;;22.60;63.20;;;;;;10326149;28;20038;-58
2023/07/01 05:55:09;;;;;;;14.48;3.88;;;22.60;63.50;;;;;;10325986;28;20014;-59
2023/07/01 06:00:13;;;;;;;22.23;3.95;;;22.60;64.30;;;;;;10299272;28;20026;-60
2023/07/01 06:05:14;;;;;;;20.40;4.97;;;22.60;63.80;;;;;;10325683;28;20026;-58
2023/07/01 06:10:15;;;;;;;15.45;3.78;;;22.60;63.60;;;;;;10306994;28;20621;-60
2023/07/01 06:15:16;;;;;;;19.08;3.95;;;22.60;64.10;;;;;;10301939;28;20041;-59
2023/07/01 06:20:16;;;;;;;21.25;4.50;;;22.60;64.00;;;;;;10321266;28;20478;-58
2023/07/01 06:25:18;;;;;;;14.20;4.00;;;22.60;64.00;;;;;;10305286;28;20711;-58
2023/07/01 06:30:18;;;;;;;18.25;4.10;;;22.60;64.20;;;;;;10323498;28;20108;-58
2023/07/01 06:35:19;;;;;;;24.58;5.80;;;22.60;64.50;;;;;;10290228;28;20100;-58
2023/07/01 06:40:20;;;;;;;38.92;6.57;;;22.50;64.40;;;;;;10306848;28;20486;-59
2023/07/01 06:45:20;;;;;;;27.83;5.45;;;22.60;64.80;;;;;;10307051;28;20134;-58
2023/07/01 06:50:21;;;;;;;28.73;5.30;;;22.60;64.60;;;;;;10306944;28;20038;-58
2023/07/01 06:55:22;;;;;;;30.23;5.80;;;22.50;64.70;;;;;;10323731;28;20098;-59
2023/07/01 07:00:23;;;;;;;29.15;5.47;;;22.60;64.70;;;;;;10305129;28;20025;-58
2023/07/01 07:05:24;;;;;;;25.27;6.30;;;22.50;64.90;;;;;;10290320;28;20076;-58
2023/07/01 07:10:24;;;;;;;22.65;6.30;;;22.50;65.00;;;;;;10306503;28;20046;-58
2023/07/01 07:15:25;;;;;;;17.42;4.50;;;22.40;65.00;;;;;;10323839;28;20054;-57
2023/07/01 07:20:26;;;;;;;11.30;3.92;;;22.40;64.80;;;;;;10306062;28;20081;-56
2023/07/01 07:25:26;;;;;;;16.75;4.55;;;22.40;64.70;;;;;;10323855;28;20049;-58
2023/07/01 07:30:27;;;;;;;20.77;3.80;;;22.30;65.20;;;;;;10309031;28;20121;-58
2023/07/01 07:35:28;;;;;;;9.40;2.92;;;22.30;65.10;;;;;;10313751;28;20019;-58
2023/07/01 07:40:28;;;;;;;9.32;3.10;;;22.30;64.30;;;;;;10313044;28;20113;-57
2023/07/01 07:45:30;;;;;;;16.52;3.42;;;22.30;64.40;;;;;;10330839;28;20448;-59
2023/07/01 07:50:32;;;;;;;16.30;3.33;;;22.30;64.40;;;;;;10330847;28;20722;-59
2023/07/01 07:55:33;;;;;;;6.07;2.70;;;22.30;65.10;;;;;;10312627;28;20019;-59
2023/07/01 08:00:34;;;;;;;13.13;3.03;;;22.30;65.50;;;;;;10312990;28;20019;-59
2023/07/01 08:05:35;;;;;;;12.10;3.65;;;22.30;65.40;;;;;;10312736;28;20121;-61
2023/07/01 08:10:36;;;;;;;7.18;2.10;;;22.30;65.30;;;;;;10325026;28;20077;-59
2023/07/01 08:15:37;;;;;;;67.43;25.60;;;22.30;65.00;;;;;;10329582;28;20023;-59
2023/07/01 08:20:38;;;;;;;14.23;7.30;;;22.30;65.70;;;;;;10329480;28;20143;-59
2023/07/01 08:25:43;;;;;;;20.85;7.43;;;22.30;65.30;;;;;;10309660;28;20018;-60
2023/07/01 08:30:44;;;;;;;16.13;7.32;;;22.20;65.40;;;;;;10311586;28;20022;-60
2023/07/01 08:35:46;;;;;;;13.30;5.82;;;22.20;65.00;;;;;;10329013;28;20030;-59
2023/07/01 08:40:50;;;;;;;20.05;7.15;;;22.20;66.00;;;;;;10310725;28;20113;-59
2023/07/01 08:45:52;;;;;;;23.70;6.35;;;22.20;65.80;;;;;;10328693;28;20018;-58
2023/07/01 08:51:20;;;;;;;18.80;6.20;;;22.20;66.20;;;;;;10310361;28;20046;-59
2023/07/01 08:56:22;;;;;;;15.85;5.60;;;22.20;66.00;;;;;;10307452;28;20104;-59
2023/07/01 09:01:22;;;;;;;18.02;6.47;;;22.20;66.10;;;;;;10308583;28;20026;-57
2023/07/01 09:06:24;;;;;;;15.02;6.03;;;22.20;66.10;;;;;;10327895;28;20034;-59
2023/07/01 09:11:24;;;;;;;9.60;4.43;;;22.20;66.40;;;;;;10342721;28;20022;-56
2023/07/01 09:16:36;;;;;;;13.55;4.72;;;22.20;67.30;;;;;;10342653;28;20019;-57
2023/07/01 09:21:38;;;;;;;19.00;4.80;;;22.20;67.00;;;;;;10309829;28;20374;-58
2023/07/01 09:26:39;;;;;;;12.40;3.83;;;22.60;66.20;;;;;;10327251;28;20027;-58
2023/07/01 09:31:48;;;;;;;11.52;4.10;;;22.60;66.10;;;;;;10303374;28;20034;-58
2023/07/01 09:36:49;;;;;;;17.40;4.80;;;22.40;66.70;;;;;;10305569;28;20026;-59
2023/07/01 09:42:03;;;;;;;23.50;6.18;;;22.40;67.50;;;;;;10306320;28;20473;-57
2023/07/01 09:47:04;;;;;;;14.63;4.40;;;22.40;67.40;;;;;;10309227;28;20025;-57
2023/07/01 09:52:06;;;;;;;12.85;4.43;;;22.40;67.50;;;;;;10341271;28;20374;-56
2023/07/01 09:57:07;;;;;;;14.27;4.28;;;22.30;67.40;;;;;;10306325;28;20021;-58
2023/07/01 10:02:08;;;;;;;17.60;4.57;;;22.30;67.30;;;;;;10297756;28;20054;-59
2023/07/01 10:07:08;;;;;;;12.52;3.10;;;22.30;67.30;;;;;;10306152;28;20358;-58
2023/07/01 10:12:10;;;;;;;16.90;3.92;;;22.20;67.40;;;;;;10298880;28;20038;-59
2023/07/01 10:17:10;;;;;;;9.25;2.88;;;22.20;67.10;;;;;;10301163;28;20085;-58
2023/07/01 10:22:29;;;;;;;8.13;2.67;;;22.20;67.60;;;;;;10301367;28;20108;-58
2023/07/01 10:27:42;;;;;;;9.20;4.10;;;22.20;67.00;;;;;;10293205;28;20512;-58
2023/07/01 10:32:43;;;;;;;7.95;3.00;;;22.20;67.10;;;;;;10322719;28;20034;-59
2023/07/01 10:38:34;;;;;;;9.52;2.92;;;22.20;67.10;;;;;;10295720;28;20676;-58
2023/07/01 10:43:36;;;;;;;6.95;2.92;;;22.20;67.20;;;;;;10309927;28;20046;-59
2023/07/01 10:48:42;;;;;;;7.82;2.75;;;22.20;67.10;;;;;;10304648;28;20506;-58
2023/07/01 10:54:02;;;;;;;9.48;2.70;;;22.20;67.80;;;;;;10304897;28;20042;-58
2023/07/01 10:59:23;;;;;;;7.07;2.45;;;22.20;67.10;;;;;;10288459;28;20469;-59
2023/07/01 11:04:44;;;;;;;5.93;2.58;;;22.20;67.30;;;;;;10304039;28;20022;-58
2023/07/01 11:09:45;;;;;;;6.07;2.83;;;22.20;67.30;;;;;;10303970;28;20034;-58
2023/07/01 11:14:46;;;;;;;6.05;2.35;;;22.20;67.20;;;;;;10293092;28;20014;-58
2023/07/01 11:19:55;;;;;;;9.40;2.50;;;22.20;67.30;;;;;;10293718;28;20026;-58
2023/07/01 11:25:05;;;;;;;6.50;2.83;;;22.20;67.30;;;;;;10295383;28;20038;-58
2023/07/01 11:30:06;;;;;;;6.35;2.50;;;22.20;67.40;;;;;;10320906;28;20065;-58
2023/07/01 11:35:08;;;;;;;6.07;2.63;;;22.20;67.40;;;;;;10303037;28;20457;-58
2023/07/01 11:40:09;;;;;;;6.38;3.28;;;22.20;67.40;;;;;;10303483;28;20018;-58
2023/07/01 11:45:10;;;;;;;5.30;2.58;;;22.20;67.40;;;;;;10321040;28;20517;-58
2023/07/01 11:50:11;;;;;;;6.28;2.47;;;22.20;67.50;;;;;;10303593;28;20027;-58
2023/07/01 11:55:12;;;;;;;5.20;2.17;;;22.20;67.50;;;;;;10320870;28;20469;-58
2023/07/01 12:00:29;;;;;;;4.32;2.17;;;22.20;67.50;;;;;;10291963;28;20097;-58
2023/07/01 12:05:34;;;;;;;7.38;2.72;;;22.20;67.50;;;;;;10294872;28;20035;-58
2023/07/01 12:10:42;;;;;;;3.17;2.15;;;22.20;67.50;;;;;;10320496;28;20076;-57
2023/07/01 12:15:53;;;;;;;5.78;2.22;;;22.20;67.50;;;;;;10304034;28;20117;-57
2023/07/01 12:20:54;;;;;;;3.75;2.20;;;22.20;67.60;;;;;;10293778;28;20595;-58
2023/07/01 12:25:55;;;;;;;3.55;2.22;;;22.20;67.60;;;;;;10308950;28;20085;-57
2023/07/01 12:30:55;;;;;;;5.20;2.90;;;22.30;67.60;;;;;;10309626;28;20390;-58
2023/07/01 12:35:57;;;;;;;3.55;1.80;;;22.30;67.70;;;;;;10309697;28;20355;-57
2023/07/01 12:40:58;;;;;;;2.78;1.73;;;22.30;67.70;;;;;;10309890;28;20030;-58
2023/07/01 12:45:58;;;;;;;3.42;1.70;;;22.30;67.70;;;;;;10309402;28;20034;-58
2023/07/01 12:50:59;;;;;;;4.75;2.40;;;22.30;67.70;;;;;;10308898;28;20088;-57
2023/07/01 12:56:00;;;;;;;4.75;2.53;;;22.30;67.80;;;;;;10308586;28;20446;-59
2023/07/01 13:01:00;;;;;;;4.25;2.13;;;22.30;67.70;;;;;;10326005;28;20129;-58
2023/07/01 13:06:11;;;;;;;4.95;2.08;;;22.30;67.80;;;;;;10325749;28;20089;-58
2023/07/01 13:11:16;;;;;;;4.18;2.30;;;22.30;67.80;;;;;;10305918;28;20031;-59
2023/07/01 13:16:36;;;;;;;3.33;1.85;;;22.30;67.80;;;;;;10307538;28;20104;-58
2023/07/01 13:21:39;;;;;;;5.18;2.22;;;22.30;67.70;;;;;;10324946;28;20061;-58
2023/07/01 13:26:45;;;;;;;3.55;2.35;;;22.40;67.80;;;;;;10300727;28;20026;-58
2023/07/01 13:31:49;;;;;;;3.50;1.50;;;22.40;67.80;;;;;;10302314;28;20045;-59
2023/07/01 13:36:53;;;;;;;5.20;2.00;;;22.40;67.70;;;;;;10303724;28;20025;-59
2023/07/01 13:41:53;;;;;;;4.50;3.13;;;22.30;67.70;;;;;;10305026;28;20022;-58
2023/07/01 13:46:56;;;;;;;4.72;2.08;;;22.30;67.60;;;;;;10324542;28;20022;-58
2023/07/01 13:51:57;;;;;;;4.97;2.45;;;22.30;67.80;;;;;;10294299;28;20347;-59
2023/07/01 13:57:00;;;;;;;3.75;2.20;;;22.30;67.80;;;;;;10295334;28;20058;-59
2023/07/01 14:02:05;;;;;;;3.50;2.10;;;22.30;67.80;;;;;;10297129;28;20635;-57
2023/07/01 14:07:06;;;;;;;3.03;1.83;;;22.30;71.30;;;;;;10298019;28;20097;-58
2023/07/01 14:12:08;;;;;;;3.63;2.50;;;22.40;70.90;;;;;;10298785;28;20464;-58
2023/07/01 14:17:17;;;;;;;3.53;1.95;;;22.40;70.60;;;;;;10338359;28;20551;-59
2023/07/01 14:22:17;;;;;;;3.65;2.20;;;22.40;70.60;;;;;;10323223;28;20050;-58
2023/07/01 14:27:27;;;;;;;2.75;1.90;;;22.40;70.50;;;;;;10305301;28;20121;-58
2023/07/01 14:32:28;;;;;;;3.40;2.30;;;22.40;70.40;;;;;;10305220;28;20112;-59
2023/07/01 14:37:28;;;;;;;5.05;2.33;;;22.40;70.40;;;;;;10323031;28;20093;-59
2023/07/01 14:42:29;;;;;;;3.70;2.50;;;22.40;70.10;;;;;;10321555;28;20117;-58
2023/07/01 14:47:30;;;;;;;4.63;2.22;;;22.40;70.10;;;;;;10295746;28;20110;-58
2023/07/01 14:52:30;;;;;;;3.22;2.10;;;22.40;69.90;;;;;;10322099;28;20105;-58
2023/07/01 14:57:31;;;;;;;3.53;2.65;;;22.40;69.80;;;;;;10297250;28;20105;-58
2023/07/01 15:02:32;;;;;;;2.42;1.60;;;22.40;69.70;;;;;;10298082;28;20088;-58
2023/07/01 15:07:33;;;;;;;2.28;1.70;;;22.40;69.60;;;;;;10298918;28;20392;-57
2023/07/01 15:12:34;;;;;;;2.45;2.20;;;22.40;69.40;;;;;;10300133;28;20030;-58
2023/07/01 15:17:35;;;;;;;3.20;2.38;;;22.40;69.20;;;;;;10305138;28;20197;-59
2023/07/01 15:22:35;;;;;;;3.03;1.75;;;22.40;69.10;;;;;;10303999;28;20512;-58
2023/07/01 15:27:36;;;;;;;2.78;1.88;;;22.40;69.00;;;;;;10303782;28;20488;-59
2023/07/01 15:32:37;;;;;;;2.88;2.28;;;22.40;68.90;;;;;;10321300;28;20066;-59
2023/07/01 15:37:37;;;;;;;2.78;1.90;;;22.40;68.80;;;;;;10321432;28;20470;-58
2023/07/01 15:42:39;;;;;;;3.55;2.63;;;22.40;68.80;;;;;;10294109;28;20106;-59
2023/07/01 15:47:40;;;;;;;2.85;1.83;;;22.40;68.80;;;;;;10295471;28;20022;-59
2023/07/01 15:52:40;;;;;;;3.28;1.92;;;22.40;68.70;;;;;;10302201;28;20511;-58
2023/07/01 15:57:41;;;;;;;2.80;2.03;;;22.40;68.70;;;;;;10305160;28;20105;-59
2023/07/01 16:02:44;;;;;;;4.18;2.03;;;22.40;68.70;;;;;;10306380;28;20108;-59
2023/07/01 16:08:10;;;;;;;4.22;2.67;;;22.40;68.60;;;;;;10307220;28;20113;-59
2023/07/01 16:13:36;;;;;;;2.00;1.58;;;22.30;68.50;;;;;;10298534;28;20493;-59
2023/07/01 16:18:49;;;;;;;2.88;1.77;;;22.30;68.50;;;;;;10328771;28;20061;-61
2023/07/01 16:23:54;;;;;;;3.00;1.88;;;22.30;68.40;;;;;;10327589;28;20054;-59
2023/07/01 16:28:55;;;;;;;3.00;2.00;;;22.30;68.50;;;;;;10291588;28;20045;-59
2023/07/01 16:33:57;;;;;;;3.35;2.35;;;22.30;68.40;;;;;;10308936;28;20026;-59
2023/07/01 16:39:04;;;;;;;1.92;1.50;;;22.30;68.30;;;;;;10309321;28;20077;-59
2023/07/01 16:44:05;;;;;;;3.25;1.70;;;22.30;68.30;;;;;;10298038;28;20030;-58
2023/07/01 16:49:08;;;;;;;2.65;1.75;;;22.30;68.20;;;;;;10298811;28;20433;-62
2023/07/01 16:54:37;;;;;;;2.42;1.90;;;22.30;68.20;;;;;;10309140;28;20073;-59
2023/07/01 16:59:45;;;;;;;3.03;1.80;;;22.30;68.30;;;;;;10316975;28;20038;-58
2023/07/01 17:04:46;;;;;;;1.90;1.70;;;22.30;68.20;;;;;;10279026;28;20381;-59
2023/07/01 17:09:49;;;;;;;2.65;1.73;;;22.30;68.20;;;;;;10326182;28;20022;-58
2023/07/01 17:14:50;;;;;;;2.65;1.80;;;22.30;68.20;;;;;;10308287;28;20217;-59
2023/07/01 17:19:51;;;;;;;3.25;1.65;;;22.20;68.20;;;;;;10297893;28;20070;-59
2023/07/01 17:24:52;;;;;;;3.30;2.08;;;22.30;68.20;;;;;;10325562;28;20022;-59
2023/07/01 17:29:53;;;;;;;3.00;2.03;;;22.20;68.20;;;;;;10307752;28;20061;-58
2023/07/01 17:35:15;;;;;;;2.40;1.40;;;22.20;68.20;;;;;;10324694;28;20085;-59
2023/07/01 17:40:19;;;;;;;3.35;2.25;;;22.20;68.10;;;;;;10291609;28;20037;-59
2023/07/01 17:45:21;;;;;;;2.55;1.90;;;22.20;68.10;;;;;;10306965;28;20474;-59
2023/07/01 17:50:21;;;;;;;3.08;2.05;;;22.20;68.10;;;;;;10306971;28;20018;-59
2023/07/01 17:55:22;;;;;;;2.13;1.30;;;22.30;68.10;;;;;;10306685;28;20895;-57
2023/07/01 18:00:24;;;;;;;1.90;1.40;;;22.20;68.00;;;;;;10323701;28;20061;-59
2023/07/01 18:05:25;;;;;;;3.10;2.10;;;22.20;68.10;;;;;;10306725;28;20026;-59
2023/07/01 18:10:25;;;;;;;2.47;2.15;;;22.20;68.00;;;;;;10306422;28;20112;-59
2023/07/01 18:15:26;;;;;;;2.28;1.80;;;22.20;68.00;;;;;;10323916;28;20462;-59
2023/07/01 18:20:27;;;;;;;2.15;1.73;;;22.20;68.00;;;;;;10289601;28;20054;-59
2023/07/01 18:25:27;;;;;;;2.83;2.13;;;22.20;68.00;;;;;;10305693;28;20441;-59
2023/07/01 18:30:28;;;;;;;2.35;1.77;;;22.20;67.90;;;;;;10322925;28;20030;-59
2023/07/01 18:35:29;;;;;;;2.67;1.95;;;22.10;67.80;;;;;;10305712;28;20408;-59
2023/07/01 18:40:30;;;;;;;2.33;1.75;;;22.10;67.70;;;;;;10322614;28;20034;-59
2023/07/01 18:45:30;;;;;;;2.20;1.83;;;22.10;67.70;;;;;;10303836;28;20105;-59
2023/07/01 18:50:31;;;;;;;2.50;1.70;;;22.10;67.50;;;;;;10292853;28;20126;-59
2023/07/01 18:55:32;;;;;;;2.15;1.95;;;22.10;67.60;;;;;;10321657;28;20038;-59
2023/07/01 19:00:32;;;;;;;2.80;1.92;;;22.10;67.60;;;;;;10322238;28;20018;-59
2023/07/01 19:05:33;;;;;;;2.58;1.73;;;22.10;67.40;;;;;;10322030;28;20101;-59
2023/07/01 19:10:34;;;;;;;2.60;1.77;;;22.10;67.30;;;;;;10304385;28;20132;-59
2023/07/01 19:15:35;;;;;;;2.08;1.77;;;22.10;67.30;;;;;;10320511;28;20415;-60
2023/07/01 19:20:47;;;;;;;3.25;2.00;;;22.10;67.20;;;;;;10323487;28;20163;-58
2023/07/01 19:25:50;;;;;;;2.72;1.75;;;22.10;67.50;;;;;;10308947;28;20022;-58
2023/07/01 19:30:51;;;;;;;5.55;2.92;;;22.10;67.50;;;;;;10314209;28;20117;-59
2023/07/01 19:35:53;;;;;;;3.95;2.08;;;22.20;67.50;;;;;;10308541;28;20019;-59
2023/07/01 19:40:54;;;;;;;3.92;1.85;;;22.20;67.40;;;;;;10313584;28;20029;-59
2023/07/01 19:45:54;;;;;;;4.20;1.73;;;22.20;67.50;;;;;;10325319;28;20113;-60
2023/07/01 19:50:55;;;;;;;5.28;1.95;;;22.20;67.30;;;;;;10300868;28;20030;-60
2023/07/01 19:55:59;;;;;;;4.57;2.00;;;22.20;67.40;;;;;;10312312;28;20049;-60
2023/07/01 20:00:59;;;;;;;2.63;1.60;;;22.10;67.10;;;;;;10309890;28;20026;-60
2023/07/01 20:06:00;;;;;;;5.22;1.85;;;22.10;66.80;;;;;;10307807;28;20023;-60
2023/07/01 20:11:01;;;;;;;5.75;1.88;;;22.10;66.80;;;;;;10310512;28;20121;-60
2023/07/01 20:16:01;;;;;;;2.42;2.03;;;22.10;66.60;;;;;;10309371;28;20033;-60
2023/07/01 20:21:02;;;;;;;2.42;1.38;;;22.10;66.60;;;;;;10329470;28;20125;-60
2023/07/01 20:26:05;;;;;;;2.42;1.48;;;22.00;66.50;;;;;;10312410;28;20042;-60
2023/07/01 20:31:05;;;;;;;2.35;1.63;;;22.00;66.50;;;;;;10329638;28;20034;-60
2023/07/01 20:36:06;;;;;;;1.55;1.45;;;22.00;66.50;;;;;;10311596;28;20172;-60
2023/07/01 20:41:06;;;;;;;2.97;1.70;;;22.00;66.50;;;;;;10328914;28;20481;-60
2023/07/01 20:46:07;;;;;;;2.13;1.42;;;22.00;66.40;;;;;;10329033;28;20019;-61
2023/07/01 20:51:08;;;;;;;1.95;1.55;;;22.00;66.40;;;;;;10311205;28;20121;-60
2023/07/01 20:56:08;;;;;;;1.85;1.38;;;22.00;66.30;;;;;;10328570;28;20076;-60
2023/07/01 21:01:09;;;;;;;2.72;1.92;;;22.00;66.30;;;;;;10310727;28;20050;-60
2023/07/01 21:06:10;;;;;;;2.25;1.58;;;22.00;66.30;;;;;;10328044;28;20062;-60
2023/07/01 21:11:10;;;;;;;2.90;1.45;;;22.00;66.30;;;;;;10310269;28;20875;-59
2023/07/01 21:16:11;;;;;;;2.28;1.50;;;22.00;66.20;;;;;;10327912;28;20019;-60
2023/07/01 21:21:12;;;;;;;2.65;1.63;;;22.00;66.20;;;;;;10326880;28;20188;-60
2023/07/01 21:26:22;;;;;;;2.03;1.38;;;22.00;66.20;;;;;;10291987;28;20044;-60
2023/07/01 21:31:24;;;;;;;2.00;1.67;;;22.00;66.20;;;;;;10308919;28;20049;-61
2023/07/01 21:36:25;;;;;;;1.35;1.08;;;22.00;66.10;;;;;;10302104;28;20034;-60
2023/07/01 21:41:25;;;;;;;2.00;1.50;;;22.00;66.10;;;;;;10303246;28;20097;-60
2023/07/01 21:46:26;;;;;;;1.70;1.00;;;22.00;66.10;;;;;;10303917;28;20105;-61
2023/07/01 21:51:27;;;;;;;1.45;1.10;;;22.00;66.10;;;;;;10305147;28;20394;-60
2023/07/01 21:56:39;;;;;;;1.85;1.40;;;22.00;66.00;;;;;;10308422;28;20100;-60
2023/07/01 22:01:45;;;;;;;2.08;1.27;;;22.00;66.00;;;;;;10308798;28;20026;-60
2023/07/01 22:06:47;;;;;;;1.90;1.08;;;22.00;66.00;;;;;;10308181;28;20402;-59
2023/07/01 22:11:48;;;;;;;2.03;1.20;;;21.90;66.00;;;;;;10307764;28;20026;-60
2023/07/01 22:16:49;;;;;;;2.35;1.40;;;21.90;66.50;;;;;;10308002;28;20014;-60
2023/07/01 22:21:49;;;;;;;1.48;1.20;;;21.90;65.90;;;;;;10325096;28;20547;-60
2023/07/01 22:26:50;;;;;;;2.25;1.40;;;21.90;65.90;;;;;;10302093;28;20023;-60
2023/07/01 22:31:51;;;;;;;2.00;1.35;;;21.90;66.00;;;;;;10307989;28;20113;-60
2023/07/01 22:36:51;;;;;;;1.52;1.30;;;21.90;66.00;;;;;;10307391;28;20190;-60
2023/07/01 22:41:52;;;;;;;1.95;1.20;;;21.90;66.00;;;;;;10290940;28;20109;-60
2023/07/01 22:46:53;;;;;;;2.17;1.30;;;21.90;66.00;;;;;;10307072;28;20505;-60
2023/07/01 22:51:53;;;;;;;2.83;1.90;;;21.90;66.00;;;;;;10306228;28;20109;-60
2023/07/01 22:56:54;;;;;;;1.92;1.35;;;21.90;66.00;;;;;;10324259;28;20101;-61
2023/07/01 23:01:55;;;;;;;3.40;2.10;;;21.90;66.10;;;;;;10306016;28;20170;-60
2023/07/01 23:06:56;;;;;;;2.17;1.65;;;21.90;66.00;;;;;;10323998;28;20042;-60
2023/07/01 23:11:56;;;;;;;2.67;1.50;;;21.80;66.00;;;;;;10306143;28;20178;-60
2023/07/01 23:16:57;;;;;;;1.90;1.27;;;21.90;66.00;;;;;;10323641;28;20503;-60
2023/07/01 23:21:58;;;;;;;3.13;1.60;;;21.90;66.00;;;;;;10299892;28;20080;-60
2023/07/01 23:27:01;;;;;;;2.72;1.83;;;21.90;66.00;;;;;;10306424;28;20130;-60
2023/07/01 23:32:02;;;;;;;2.08;1.27;;;21.90;66.10;;;;;;10323464;28;20034;-60
2023/07/01 23:37:02;;;;;;;3.92;1.77;;;21.80;66.00;;;;;;10306196;28;20022;-60
2023/07/01 23:42:03;;;;;;;2.85;1.80;;;21.90;66.10;;;;;;10289435;28;20073;-60
2023/07/01 23:47:06;;;;;;;2.60;1.60;;;21.80;66.10;;;;;;10305846;28;20015;-60
2023/07/01 23:52:07;;;;;;;2.47;1.65;;;21.80;66.10;;;;;;10293859;28;20041;-60
2023/07/01 23:57:07;;;;;;;3.28;1.90;;;21.80;66.20;;;;;;10305626;28;20027;-61
